AirNav   Get $300 off a Bose A20 Aviation Headset
 
 282 users online  

OK47 Miller Brothers Airport
Manchester, Oklahoma, USA

GOING TO MANCHESTER?


FAA INFORMATION EFFECTIVE 12 SEPTEMBER 2019

Location

FAA Identifier: OK47
Lat/Long: 36-56-30.0940N 098-01-01.2220W
36-56.501567N 098-01.020367W
36.9416928,-98.0170061
(estimated)
Elevation: 1250 ft. / 381 m (estimated)
Variation: 07E (1985)
From city: 3 miles S of MANCHESTER, OK
Time zone: UTC -5 (UTC -6 during Standard Time)
Zip code: 73758

Airport Operations

Airport use: Private use. Permission required prior to landing
Control tower: no
ARTCC: KANSAS CITY CENTER
FSS: MC ALESTER FLIGHT SERVICE STATION
Attendance: UNATNDD
Wind indicator: yes
Segmented circle: no

Nearby radio navigation aids

VOR radial/distance  VOR name  Freq  Var
ANYr144/15.0ANTHONY VORTAC112.9007E
ODGr334/35.8WOODRING VOR/DME109.0008E
ENDr347/36.1VANCE VORTAC115.4005E

Airport Services

Airframe service: NONE
Powerplant service: NONE

Runway Information

Runway N/S

Dimensions: 1300 x 50 ft. / 396 x 15 m
Surface: turf
RUNWAY N  RUNWAY S
Traffic pattern: leftleft

Airport Ownership and Management from official FAA records

Ownership: Privately-owned
Owner: MILLER BROTHERS
3850 S. 94 E. AVE
TULSA, OK 74145
Manager: ALDEN MILLER

Airport Operational Statistics

Aircraft based on the field: 1
Single engine airplanes: 1
    

Additional Remarks

FARM BLDGS NW CORNER.
FOR CD CTC VANCE APCH AT580-213-6765. WHEN VANCE APCH IS CLSD, CTC KANSAS CITY ARTCC AT 913-254-8508.

Instrument Procedures

There are no published instrument procedures at OK47.

Some nearby airports with instrument procedures:

KANY - Anthony Municipal Airport (13 nm N)
O53 - Medford Municipal Airport (16 nm SE)
8K2 - Harper Municipal Airport (20 nm N)
KAVK - Alva Regional Airport (33 nm W)
KBKN - Blackwell-Tonkawa Municipal Airport (34 nm E)
 
Loc | Ops | Rwys | IFR | FBO | Links
Com | Nav | Svcs | Stats | Notes
Area around OK47 (Miller Brothers Airport)
 
Road maps at: MapQuest Bing Google
 
Aerial photo
No photo
 
Sectional chart

 
Airport distance calculator
Flying to Miller Brothers Airport? Find the distance to fly.

From to OK47

Sunrise and sunset
Times for 23-Sep-2019
 Local
(UTC-5)
 Zulu
(UTC)
Morning civil twilight06:5611:56
Sunrise07:2212:22
Sunset19:2700:27
Evening civil twilight19:5300:53

Current date and time
Zulu (UTC)  23-Sep-2019 08:28:26
Local (UTC-5)  23-Sep-2019 03:28:26
 
METAR
KP28 
33nm NW 
230756Z AUTO 21003KT 14/12 A3008 RMK AO1 SLP173 T01440117
KAVK 
33nm W 
230815Z AUTO 04004KT 10SM OVC043 16/13 A3007 RMK AO2
KBKN 
34nm E 
230815Z AUTO 03004KT 10SM SCT049 18/18 A3008 RMK AO2
KWDG 
37nm S 
230815Z AUTO 00000KT 5SM BR CLR 18/17 A3004 RMK AO2
KEND 
38nm S 
230756Z AUTO 05006KT 9SM CLR 19/19 A3005 RMK AO2 VIS 7/8 RWY35L SLP166 T01920192 $
TAF
KEND 
38nm S 
222336Z 2223/2324 34012KT 9999 SCT030 QNH2989INS BECMG 2301/2302 VRB06KT 9999 BKN020 QNH2993INS TEMPO 2312/2315 BKN010 BECMG 2315/2316 11009KT 9999 FEW030 QNH3005INS TX29/2223Z TN19/2312Z LAST NO AMDS AFT 2223 NEXT 2310
KPNC 
46nm E 
230520Z 2306/2406 03008KT P6SM FEW250 FM231200 08004KT 4SM BR BKN250 FM231500 12007KT P6SM BKN250
NOTAMs
Click for the latest NOTAMs
NOTAMs are issued by the DoD/FAA and will open in a separate window not controlled by AirNav.

 

 
 

Would you like to see your business listed on this page?

 If your business provides an interesting product or service to pilots, flight crews, aircraft, or users of the Miller Brothers Airport, you should consider listing it here.  To start the listing process, click on the button below
 
Add a business
 

Other Pages about Miller Brothers Airport

Update a link
 
Copyright © AirNav, LLC. All rights reserved. Privacy Policy  Contact